sensor_id;sensor_type;location;lat;lon;timestamp;pressure;altitude;pressure_sealevel;temperature;humidity
27613;BME280;15036;48.094;-1.690;2023-09-08T00:02:16;100913.84;;;30.53;45.25
27613;BME280;15036;48.094;-1.690;2023-09-08T00:04:41;100906.19;;;30.45;46.01
27613;BME280;15036;48.094;-1.690;2023-09-08T00:07:07;100915.66;;;30.66;45.42
27613;BME280;15036;48.094;-1.690;2023-09-08T00:09:32;100919.91;;;30.86;44.94
27613;BME280;15036;48.094;-1.690;2023-09-08T00:11:57;100925.84;;;30.85;45.23
27613;BME280;15036;48.094;-1.690;2023-09-08T00:14:23;100926.03;;;30.88;44.87
27613;BME280;15036;48.094;-1.690;2023-09-08T00:16:48;100920.19;;;30.85;44.89
27613;BME280;15036;48.094;-1.690;2023-09-08T00:19:14;100923.88;;;30.94;45.08
27613;BME280;15036;48.094;-1.690;2023-09-08T00:21:39;100932.09;;;30.73;45.93
27613;BME280;15036;48.094;-1.690;2023-09-08T00:24:05;100933.44;;;30.28;47.05
27613;BME280;15036;48.094;-1.690;2023-09-08T00:26:30;100932.19;;;30.34;47.03
27613;BME280;15036;48.094;-1.690;2023-09-08T00:28:56;100927.69;;;30.33;47.35
27613;BME280;15036;48.094;-1.690;2023-09-08T00:31:21;100920.34;;;30.23;47.00
27613;BME280;15036;48.094;-1.690;2023-09-08T00:33:46;100915.09;;;30.30;47.09
27613;BME280;15036;48.094;-1.690;2023-09-08T00:36:12;100911.94;;;30.32;46.75
27613;BME280;15036;48.094;-1.690;2023-09-08T00:38:37;100920.50;;;30.27;47.33
27613;BME280;15036;48.094;-1.690;2023-09-08T00:41:04;100918.44;;;30.32;47.14
27613;BME280;15036;48.094;-1.690;2023-09-08T00:43:30;100919.31;;;30.19;46.93
27613;BME280;15036;48.094;-1.690;2023-09-08T00:45:56;100918.22;;;30.29;47.17
27613;BME280;15036;48.094;-1.690;2023-09-08T00:48:24;100926.06;;;30.40;46.83
27613;BME280;15036;48.094;-1.690;2023-09-08T00:50:49;100910.75;;;30.24;47.10
27613;BME280;15036;48.094;-1.690;2023-09-08T00:53:15;100914.53;;;30.20;47.25
27613;BME280;15036;48.094;-1.690;2023-09-08T00:55:40;100916.44;;;30.02;48.14
27613;BME280;15036;48.094;-1.690;2023-09-08T00:58:06;100916.72;;;29.92;48.30
27613;BME280;15036;48.094;-1.690;2023-09-08T01:00:31;100920.56;;;29.96;48.23
27613;BME280;15036;48.094;-1.690;2023-09-08T01:02:57;100921.13;;;30.15;47.65
27613;BME280;15036;48.094;-1.690;2023-09-08T01:05:23;100920.97;;;30.12;48.19
27613;BME280;15036;48.094;-1.690;2023-09-08T01:07:49;100922.22;;;29.97;48.77
27613;BME280;15036;48.094;-1.690;2023-09-08T01:10:15;100917.41;;;29.98;48.98
27613;BME280;15036;48.094;-1.690;2023-09-08T01:12:40;100919.72;;;29.95;49.08
27613;BME280;15036;48.094;-1.690;2023-09-08T01:15:06;100912.78;;;29.93;49.09
27613;BME280;15036;48.094;-1.690;2023-09-08T01:17:32;100914.78;;;30.01;48.87
27613;BME280;15036;48.094;-1.690;2023-09-08T01:20:46;100917.59;;;30.01;48.91
27613;BME280;15036;48.094;-1.690;2023-09-08T01:25:24;100910.44;;;29.95;48.55
27613;BME280;15036;48.094;-1.690;2023-09-08T01:27:52;100924.56;;;30.04;48.20
27613;BME280;15036;48.094;-1.690;2023-09-08T01:30:19;100912.78;;;29.93;48.01
27613;BME280;15036;48.094;-1.690;2023-09-08T01:32:46;100914.53;;;29.14;49.95
27613;BME280;15036;48.094;-1.690;2023-09-08T01:35:12;100908.84;;;29.72;48.69
27613;BME280;15036;48.094;-1.690;2023-09-08T01:37:41;100909.25;;;29.35;49.81
27613;BME280;15036;48.094;-1.690;2023-09-08T01:40:08;100914.25;;;28.39;51.73
27613;BME280;15036;48.094;-1.690;2023-09-08T01:42:34;100920.69;;;28.67;51.17
27613;BME280;15036;48.094;-1.690;2023-09-08T01:44:59;100916.53;;;28.37;51.90
27613;BME280;15036;48.094;-1.690;2023-09-08T01:47:25;100916.34;;;28.96;50.12
27613;BME280;15036;48.094;-1.690;2023-09-08T01:49:50;100914.09;;;28.85;50.42
27613;BME280;15036;48.094;-1.690;2023-09-08T01:52:16;100901.59;;;29.13;49.50
27613;BME280;15036;48.094;-1.690;2023-09-08T01:54:41;100902.41;;;28.91;50.10
27613;BME280;15036;48.094;-1.690;2023-09-08T01:57:06;100903.50;;;29.18;49.82
27613;BME280;15036;48.094;-1.690;2023-09-08T01:59:32;100903.53;;;29.26;49.55
27613;BME280;15036;48.094;-1.690;2023-09-08T02:01:57;100897.63;;;29.28;49.45
27613;BME280;15036;48.094;-1.690;2023-09-08T02:04:23;100899.00;;;29.39;49.10
27613;BME280;15036;48.094;-1.690;2023-09-08T02:06:48;100908.84;;;29.50;48.99
27613;BME280;15036;48.094;-1.690;2023-09-08T02:09:14;100896.88;;;29.44;49.06
27613;BME280;15036;48.094;-1.690;2023-09-08T02:11:39;100899.69;;;29.44;49.14
27613;BME280;15036;48.094;-1.690;2023-09-08T02:14:05;100892.84;;;29.59;48.91
27613;BME280;15036;48.094;-1.690;2023-09-08T02:16:30;100898.06;;;29.43;49.12
27613;BME280;15036;48.094;-1.690;2023-09-08T02:18:55;100901.63;;;29.35;49.29
27613;BME280;15036;48.094;-1.690;2023-09-08T02:21:21;100904.81;;;29.42;48.97
27613;BME280;15036;48.094;-1.690;2023-09-08T02:23:46;100899.63;;;29.36;49.02
27613;BME280;15036;48.094;-1.690;2023-09-08T02:26:12;100907.97;;;29.19;49.51
27613;BME280;15036;48.094;-1.690;2023-09-08T02:28:37;100901.50;;;29.18;49.99
27613;BME280;15036;48.094;-1.690;2023-09-08T02:31:03;100905.31;;;29.22;49.66
27613;BME280;15036;48.094;-1.690;2023-09-08T02:33:28;100894.56;;;29.16;49.93
27613;BME280;15036;48.094;-1.690;2023-09-08T02:35:53;100903.44;;;29.31;49.41
27613;BME280;15036;48.094;-1.690;2023-09-08T02:38:19;100901.16;;;29.42;49.03
27613;BME280;15036;48.094;-1.690;2023-09-08T02:40:44;100898.50;;;29.37;49.18
27613;BME280;15036;48.094;-1.690;2023-09-08T02:43:10;100903.94;;;29.33;49.26
27613;BME280;15036;48.094;-1.690;2023-09-08T02:45:35;100899.97;;;29.34;49.03
27613;BME280;15036;48.094;-1.690;2023-09-08T02:48:01;100897.34;;;29.38;49.10
27613;BME280;15036;48.094;-1.690;2023-09-08T02:50:26;100901.50;;;29.40;48.77
27613;BME280;15036;48.094;-1.690;2023-09-08T02:52:51;100897.84;;;29.40;49.36
27613;BME280;15036;48.094;-1.690;2023-09-08T02:55:17;100899.00;;;29.39;49.22
27613;BME280;15036;48.094;-1.690;2023-09-08T02:57:42;100907.97;;;29.41;48.79
27613;BME280;15036;48.094;-1.690;2023-09-08T03:00:08;100902.34;;;29.41;48.93
27613;BME280;15036;48.094;-1.690;2023-09-08T03:02:33;100897.84;;;29.40;49.32
27613;BME280;15036;48.094;-1.690;2023-09-08T03:04:59;100903.34;;;29.45;49.26
27613;BME280;15036;48.094;-1.690;2023-09-08T03:07:25;100906.78;;;29.42;49.43
27613;BME280;15036;48.094;-1.690;2023-09-08T03:09:51;100903.34;;;29.45;49.47
27613;BME280;15036;48.094;-1.690;2023-09-08T03:12:16;100900.66;;;29.40;49.27
27613;BME280;15036;48.094;-1.690;2023-09-08T03:14:41;100893.88;;;29.41;49.40
27613;BME280;15036;48.094;-1.690;2023-09-08T03:17:07;100902.97;;;29.38;49.27
27613;BME280;15036;48.094;-1.690;2023-09-08T03:19:33;100903.97;;;29.42;49.30
27613;BME280;15036;48.094;-1.690;2023-09-08T03:21:58;100903.00;;;29.16;49.92
27613;BME280;15036;48.094;-1.690;2023-09-08T03:24:24;100899.41;;;29.24;49.91
27613;BME280;15036;48.094;-1.690;2023-09-08T03:26:49;100903.97;;;28.97;50.46
27613;BME280;15036;48.094;-1.690;2023-09-08T03:29:14;100903.72;;;29.07;49.97
27613;BME280;15036;48.094;-1.690;2023-09-08T03:31:40;100906.34;;;28.90;50.74
27613;BME280;15036;48.094;-1.690;2023-09-08T03:34:05;100905.84;;;28.88;50.54
27613;BME280;15036;48.094;-1.690;2023-09-08T03:36:30;100904.19;;;28.87;50.99
27613;BME280;15036;48.094;-1.690;2023-09-08T03:38:56;100894.72;;;28.83;50.98
27613;BME280;15036;48.094;-1.690;2023-09-08T03:41:23;100899.28;;;28.93;50.49
27613;BME280;15036;48.094;-1.690;2023-09-08T03:43:48;100894.09;;;28.86;50.95
27613;BME280;15036;48.094;-1.690;2023-09-08T03:46:14;100899.09;;;28.89;50.88
27613;BME280;15036;48.094;-1.690;2023-09-08T03:48:39;100898.16;;;28.80;50.70
27613;BME280;15036;48.094;-1.690;2023-09-08T03:51:05;100894.81;;;28.56;51.37
27613;BME280;15036;48.094;-1.690;2023-09-08T03:53:31;100891.56;;;28.63;51.58
27613;BME280;15036;48.094;-1.690;2023-09-08T03:55:56;100899.56;;;28.69;51.16
27613;BME280;15036;48.094;-1.690;2023-09-08T03:58:21;100894.06;;;28.64;51.20
27613;BME280;15036;48.094;-1.690;2023-09-08T04:00:47;100895.19;;;28.63;51.14
27613;BME280;15036;48.094;-1.690;2023-09-08T04:03:12;100896.22;;;28.67;51.24
27613;BME280;15036;48.094;-1.690;2023-09-08T04:05:37;100886.63;;;28.68;51.30
27613;BME280;15036;48.094;-1.690;2023-09-08T04:08:03;100892.69;;;28.75;50.99
27613;BME280;15036;48.094;-1.690;2023-09-08T04:10:28;100894.66;;;28.75;51.17
27613;BME280;15036;48.094;-1.690;2023-09-08T04:12:54;100887.25;;;28.79;50.91
27613;BME280;15036;48.094;-1.690;2023-09-08T04:15:19;100875.69;;;28.80;51.23
27613;BME280;15036;48.094;-1.690;2023-09-08T04:17:45;100887.44;;;28.82;50.97
27613;BME280;15036;48.094;-1.690;2023-09-08T04:20:10;100888.59;;;28.81;51.26
27613;BME280;15036;48.094;-1.690;2023-09-08T04:22:36;100881.53;;;28.70;51.64
27613;BME280;15036;48.094;-1.690;2023-09-08T04:25:02;100878.84;;;28.65;51.25
27613;BME280;15036;48.094;-1.690;2023-09-08T04:27:27;100883.72;;;28.73;51.30
27613;BME280;15036;48.094;-1.690;2023-09-08T04:29:52;100890.69;;;28.76;51.09
27613;BME280;15036;48.094;-1.690;2023-09-08T04:32:18;100893.00;;;28.47;52.01
27613;BME280;15036;48.094;-1.690;2023-09-08T04:34:43;100883.66;;;28.38;52.75
27613;BME280;15036;48.094;-1.690;2023-09-08T04:37:09;100887.63;;;28.23;52.69
27613;BME280;15036;48.094;-1.690;2023-09-08T04:39:35;100885.13;;;28.21;52.88
27613;BME280;15036;48.094;-1.690;2023-09-08T04:42:02;100894.69;;;28.48;52.39
27613;BME280;15036;48.094;-1.690;2023-09-08T04:44:28;100892.72;;;28.21;52.52
27613;BME280;15036;48.094;-1.690;2023-09-08T04:46:54;100891.50;;;28.00;53.34
27613;BME280;15036;48.094;-1.690;2023-09-08T04:49:19;100877.34;;;28.05;53.19
27613;BME280;15036;48.094;-1.690;2023-09-08T04:51:45;100884.69;;;28.42;52.20
27613;BME280;15036;48.094;-1.690;2023-09-08T04:54:10;100893.66;;;28.44;52.39
27613;BME280;15036;48.094;-1.690;2023-09-08T04:56:36;100891.41;;;28.18;52.49
27613;BME280;15036;48.094;-1.690;2023-09-08T04:59:01;100894.06;;;27.18;55.34
27613;BME280;15036;48.094;-1.690;2023-09-08T05:01:27;100890.13;;;27.19;55.23
27613;BME280;15036;48.094;-1.690;2023-09-08T05:03:54;100877.59;;;27.63;54.24
27613;BME280;15036;48.094;-1.690;2023-09-08T05:06:20;100889.34;;;27.32;54.88
27613;BME280;15036;48.094;-1.690;2023-09-08T05:08:45;100889.97;;;27.11;55.81
27613;BME280;15036;48.094;-1.690;2023-09-08T05:11:11;100891.63;;;26.80;56.49
27613;BME280;15036;48.094;-1.690;2023-09-08T05:13:36;100889.94;;;26.79;56.60
27613;BME280;15036;48.094;-1.690;2023-09-08T05:16:01;100890.00;;;26.92;56.52
27613;BME280;15036;48.094;-1.690;2023-09-08T05:18:36;100889.31;;;27.51;54.80
27613;BME280;15036;48.094;-1.690;2023-09-08T05:21:02;100885.88;;;27.54;54.83
27613;BME280;15036;48.094;-1.690;2023-09-08T05:23:27;100887.31;;;27.52;54.43
27613;BME280;15036;48.094;-1.690;2023-09-08T05:25:53;100885.00;;;27.86;53.59
27613;BME280;15036;48.094;-1.690;2023-09-08T05:28:18;100894.78;;;27.75;54.13
27613;BME280;15036;48.094;-1.690;2023-09-08T05:30:44;100894.41;;;27.95;53.55
27613;BME280;15036;48.094;-1.690;2023-09-08T05:33:09;100898.19;;;27.39;54.94
27613;BME280;15036;48.094;-1.690;2023-09-08T05:35:35;100897.22;;;27.95;53.44
27613;BME280;15036;48.094;-1.690;2023-09-08T05:38:01;100892.38;;;27.82;53.88
27613;BME280;15036;48.094;-1.690;2023-09-08T05:40:26;100894.09;;;27.96;53.40
27613;BME280;15036;48.094;-1.690;2023-09-08T05:42:52;100895.09;;;27.87;53.24
27613;BME280;15036;48.094;-1.690;2023-09-08T05:45:18;100891.97;;;27.88;53.44
27613;BME280;15036;48.094;-1.690;2023-09-08T05:47:43;100902.03;;;27.89;53.28
27613;BME280;15036;48.094;-1.690;2023-09-08T05:50:09;100903.72;;;27.90;53.40
27613;BME280;15036;48.094;-1.690;2023-09-08T05:52:34;100903.44;;;28.33;52.31
27613;BME280;15036;48.094;-1.690;2023-09-08T05:55:01;100907.00;;;28.24;52.76
27613;BME280;15036;48.094;-1.690;2023-09-08T05:57:26;100909.66;;;28.43;52.04
27613;BME280;15036;48.094;-1.690;2023-09-08T05:59:52;100908.94;;;28.51;52.26
27613;BME280;15036;48.094;-1.690;2023-09-08T06:02:17;100909.88;;;28.33;52.20
27613;BME280;15036;48.094;-1.690;2023-09-08T06:04:43;100911.34;;;28.44;52.31
27613;BME280;15036;48.094;-1.690;2023-09-08T06:07:08;100914.03;;;28.49;51.87
27613;BME280;15036;48.094;-1.690;2023-09-08T06:09:33;100914.53;;;28.51;52.33
27613;BME280;15036;48.094;-1.690;2023-09-08T06:11:59;100910.59;;;28.66;51.78
27613;BME280;15036;48.094;-1.690;2023-09-08T06:14:24;100921.34;;;28.64;51.89
27613;BME280;15036;48.094;-1.690;2023-09-08T06:16:49;100922.75;;;28.75;51.53
27613;BME280;15036;48.094;-1.690;2023-09-08T06:19:14;100914.78;;;28.90;51.08
27613;BME280;15036;48.094;-1.690;2023-09-08T06:21:40;100917.50;;;28.95;51.21
27613;BME280;15036;48.094;-1.690;2023-09-08T06:24:06;100919.59;;;28.90;50.94
27613;BME280;15036;48.094;-1.690;2023-09-08T06:26:31;100922.72;;;28.88;51.28
27613;BME280;15036;48.094;-1.690;2023-09-08T06:28:56;100925.13;;;28.81;51.10
27613;BME280;15036;48.094;-1.690;2023-09-08T06:31:22;100925.25;;;28.76;51.48
27613;BME280;15036;48.094;-1.690;2023-09-08T06:33:47;100922.94;;;28.78;51.67
27613;BME280;15036;48.094;-1.690;2023-09-08T06:36:15;100922.19;;;28.86;51.82
27613;BME280;15036;48.094;-1.690;2023-09-08T06:38:40;100925.59;;;28.97;51.68
27613;BME280;15036;48.094;-1.690;2023-09-08T06:41:10;100925.69;;;29.05;51.65
27613;BME280;15036;48.094;-1.690;2023-09-08T06:43:36;100927.72;;;28.91;51.84
27613;BME280;15036;48.094;-1.690;2023-09-08T06:46:01;100923.13;;;28.95;51.46
27613;BME280;15036;48.094;-1.690;2023-09-08T06:48:27;100931.44;;;29.00;51.82
27613;BME280;15036;48.094;-1.690;2023-09-08T06:50:55;100926.28;;;29.16;51.53
27613;BME280;15036;48.094;-1.690;2023-09-08T06:53:22;100926.00;;;29.18;51.39
27613;BME280;15036;48.094;-1.690;2023-09-08T06:55:48;100932.38;;;29.32;50.98
27613;BME280;15036;48.094;-1.690;2023-09-08T06:58:13;100924.94;;;29.36;51.06
27613;BME280;15036;48.094;-1.690;2023-09-08T07:00:40;100937.03;;;29.36;51.75
27613;BME280;15036;48.094;-1.690;2023-09-08T07:03:06;100936.34;;;29.31;51.70
27613;BME280;15036;48.094;-1.690;2023-09-08T07:05:35;100944.38;;;29.46;51.78
27613;BME280;15036;48.094;-1.690;2023-09-08T07:08:01;100944.59;;;29.71;51.07
27613;BME280;15036;48.094;-1.690;2023-09-08T07:10:26;100948.38;;;29.89;50.52
27613;BME280;15036;48.094;-1.690;2023-09-08T07:12:51;100943.25;;;29.69;50.93
27613;BME280;15036;48.094;-1.690;2023-09-08T07:15:17;100942.91;;;29.92;50.21
27613;BME280;15036;48.094;-1.690;2023-09-08T07:17:42;100944.88;;;29.92;50.17
27613;BME280;15036;48.094;-1.690;2023-09-08T07:20:08;100938.59;;;29.95;50.24
27613;BME280;15036;48.094;-1.690;2023-09-08T07:22:33;100945.75;;;30.01;50.56
27613;BME280;15036;48.094;-1.690;2023-09-08T07:24:59;100950.63;;;30.18;49.89
27613;BME280;15036;48.094;-1.690;2023-09-08T07:27:24;100950.34;;;30.28;49.86
27613;BME280;15036;48.094;-1.690;2023-09-08T07:29:49;100947.94;;;30.43;49.58
27613;BME280;15036;48.094;-1.690;2023-09-08T07:32:16;100946.66;;;30.49;49.49
27613;BME280;15036;48.094;-1.690;2023-09-08T07:34:42;100951.19;;;30.67;49.33
27613;BME280;15036;48.094;-1.690;2023-09-08T07:37:07;100959.16;;;30.74;48.81
27613;BME280;15036;48.094;-1.690;2023-09-08T07:39:32;100946.28;;;30.90;48.85
27613;BME280;15036;48.094;-1.690;2023-09-08T07:41:58;100953.22;;;30.93;48.71
27613;BME280;15036;48.094;-1.690;2023-09-08T07:44:24;100959.06;;;31.05;48.06
27613;BME280;15036;48.094;-1.690;2023-09-08T07:46:49;100956.72;;;30.90;48.56
27613;BME280;15036;48.094;-1.690;2023-09-08T07:49:16;100949.59;;;30.84;48.65
27613;BME280;15036;48.094;-1.690;2023-09-08T07:51:44;100954.88;;;30.85;49.12
27613;BME280;15036;48.094;-1.690;2023-09-08T07:54:09;100951.75;;;31.04;48.70
27613;BME280;15036;48.094;-1.690;2023-09-08T07:56:34;100957.16;;;30.83;49.04
27613;BME280;15036;48.094;-1.690;2023-09-08T07:59:00;100963.72;;;31.09;48.33
27613;BME280;15036;48.094;-1.690;2023-09-08T08:01:25;100964.72;;;31.22;47.91
27613;BME280;15036;48.094;-1.690;2023-09-08T08:03:50;100963.56;;;31.40;47.46
27613;BME280;15036;48.094;-1.690;2023-09-08T08:06:16;100964.19;;;31.28;47.99
27613;BME280;15036;48.094;-1.690;2023-09-08T08:08:42;100971.50;;;31.21;48.17
27613;BME280;15036;48.094;-1.690;2023-09-08T08:11:15;100965.06;;;31.46;47.71
27613;BME280;15036;48.094;-1.690;2023-09-08T08:13:40;100969.50;;;31.55;47.41
27613;BME280;15036;48.094;-1.690;2023-09-08T08:16:06;100970.00;;;31.66;47.18
27613;BME280;15036;48.094;-1.690;2023-09-08T08:18:32;100968.88;;;31.58;47.35
27613;BME280;15036;48.094;-1.690;2023-09-08T08:20:57;100976.84;;;31.56;47.48
27613;BME280;15036;48.094;-1.690;2023-09-08T08:23:22;100976.34;;;31.63;47.36
27613;BME280;15036;48.094;-1.690;2023-09-08T08:25:51;100977.63;;;31.74;47.09
27613;BME280;15036;48.094;-1.690;2023-09-08T08:28:16;100979.28;;;31.92;46.78
27613;BME280;15036;48.094;-1.690;2023-09-08T08:30:42;100976.91;;;32.11;46.41
27613;BME280;15036;48.094;-1.690;2023-09-08T08:33:07;100975.09;;;31.90;46.81
27613;BME280;15036;48.094;-1.690;2023-09-08T08:35:32;100979.09;;;32.06;46.36
27613;BME280;15036;48.094;-1.690;2023-09-08T08:37:58;100980.97;;;32.31;46.12
27613;BME280;15036;48.094;-1.690;2023-09-08T08:40:25;100982.78;;;32.44;45.92
27613;BME280;15036;48.094;-1.690;2023-09-08T08:42:57;100982.09;;;32.47;45.47
27613;BME280;15036;48.094;-1.690;2023-09-08T08:45:26;100980.59;;;32.41;45.28
27613;BME280;15036;48.094;-1.690;2023-09-08T08:47:52;100984.63;;;32.49;45.36
27613;BME280;15036;48.094;-1.690;2023-09-08T08:50:19;100985.97;;;32.72;45.17
27613;BME280;15036;48.094;-1.690;2023-09-08T08:52:45;100996.25;;;32.01;46.93
27613;BME280;15036;48.094;-1.690;2023-09-08T08:55:11;100995.25;;;31.54;47.82
27613;BME280;15036;48.094;-1.690;2023-09-08T08:57:40;100999.63;;;32.23;46.88
27613;BME280;15036;48.094;-1.690;2023-09-08T09:00:11;100999.19;;;32.59;45.69
27613;BME280;15036;48.094;-1.690;2023-09-08T09:02:40;100994.38;;;32.60;45.66
27613;BME280;15036;48.094;-1.690;2023-09-08T09:05:11;100991.78;;;32.75;45.59
27613;BME280;15036;48.094;-1.690;2023-09-08T09:07:37;100992.34;;;32.98;45.65
27613;BME280;15036;48.094;-1.690;2023-09-08T09:10:03;100989.44;;;33.06;45.03
27613;BME280;15036;48.094;-1.690;2023-09-08T09:12:29;100984.34;;;33.00;44.93
27613;BME280;15036;48.094;-1.690;2023-09-08T09:14:54;100986.91;;;33.13;44.78
27613;BME280;15036;48.094;-1.690;2023-09-08T09:17:20;100992.13;;;33.03;45.21
27613;BME280;15036;48.094;-1.690;2023-09-08T09:19:46;100989.38;;;33.36;44.31
27613;BME280;15036;48.094;-1.690;2023-09-08T09:22:11;100989.25;;;33.53;44.24
27613;BME280;15036;48.094;-1.690;2023-09-08T09:24:40;100983.63;;;33.44;44.11
27613;BME280;15036;48.094;-1.690;2023-09-08T09:27:09;100979.94;;;33.52;44.22
27613;BME280;15036;48.094;-1.690;2023-09-08T09:29:44;100978.34;;;32.93;45.54
27613;BME280;15036;48.094;-1.690;2023-09-08T09:32:11;100974.44;;;33.68;43.99
27613;BME280;15036;48.094;-1.690;2023-09-08T09:34:47;100973.88;;;33.74;43.73
27613;BME280;15036;48.094;-1.690;2023-09-08T09:37:14;100960.34;;;33.92;43.76
27613;BME280;15036;48.094;-1.690;2023-09-08T09:39:39;100961.72;;;34.06;43.31
27613;BME280;15036;48.094;-1.690;2023-09-08T09:42:04;100967.63;;;34.14;43.43
27613;BME280;15036;48.094;-1.690;2023-09-08T09:44:30;100973.09;;;34.19;43.27
27613;BME280;15036;48.094;-1.690;2023-09-08T09:46:56;100969.31;;;34.27;42.90
27613;BME280;15036;48.094;-1.690;2023-09-08T09:49:21;100966.88;;;34.49;43.15
27613;BME280;15036;48.094;-1.690;2023-09-08T09:51:48;100967.81;;;34.53;42.93
27613;BME280;15036;48.094;-1.690;2023-09-08T09:54:15;100971.38;;;34.62;42.39
27613;BME280;15036;48.094;-1.690;2023-09-08T09:56:41;100974.06;;;34.71;41.85
27613;BME280;15036;48.094;-1.690;2023-09-08T09:59:11;100972.84;;;34.36;42.89
27613;BME280;15036;48.094;-1.690;2023-09-08T10:01:38;100970.19;;;34.63;42.54
27613;BME280;15036;48.094;-1.690;2023-09-08T10:04:04;100981.78;;;34.70;42.32
27613;BME280;15036;48.094;-1.690;2023-09-08T10:06:39;100975.00;;;34.87;42.50
27613;BME280;15036;48.094;-1.690;2023-09-08T10:09:06;100973.94;;;34.91;42.39
27613;BME280;15036;48.094;-1.690;2023-09-08T10:11:42;100976.41;;;35.17;42.01
27613;BME280;15036;48.094;-1.690;2023-09-08T10:14:10;100972.09;;;35.35;41.63
27613;BME280;15036;48.094;-1.690;2023-09-08T10:16:38;100974.47;;;35.45;41.21
27613;BME280;15036;48.094;-1.690;2023-09-08T10:19:07;100975.06;;;35.66;41.45
27613;BME280;15036;48.094;-1.690;2023-09-08T10:21:38;100964.63;;;35.98;40.59
27613;BME280;15036;48.094;-1.690;2023-09-08T10:24:13;100968.53;;;35.94;40.51
27613;BME280;15036;48.094;-1.690;2023-09-08T10:26:43;100974.47;;;35.89;40.37
27613;BME280;15036;48.094;-1.690;2023-09-08T10:29:10;100969.94;;;35.72;40.02
27613;BME280;15036;48.094;-1.690;2023-09-08T10:31:35;100963.28;;;35.52;40.02
27613;BME280;15036;48.094;-1.690;2023-09-08T10:34:02;100967.94;;;35.45;40.11
27613;BME280;15036;48.094;-1.690;2023-09-08T10:36:28;100964.03;;;35.49;40.28
27613;BME280;15036;48.094;-1.690;2023-09-08T10:38:54;100963.13;;;35.61;40.35
27613;BME280;15036;48.094;-1.690;2023-09-08T10:43:55;100969.06;;;35.56;40.09
27613;BME280;15036;48.094;-1.690;2023-09-08T10:46:22;100968.31;;;35.71;39.87
27613;BME280;15036;48.094;-1.690;2023-09-08T10:48:48;100972.09;;;35.91;39.54
27613;BME280;15036;48.094;-1.690;2023-09-08T10:51:14;100970.69;;;35.97;39.16
27613;BME280;15036;48.094;-1.690;2023-09-08T10:53:40;100969.41;;;36.10;38.97
27613;BME280;15036;48.094;-1.690;2023-09-08T10:56:06;100970.78;;;36.16;39.32
27613;BME280;15036;48.094;-1.690;2023-09-08T10:58:35;100961.78;;;36.29;39.11
27613;BME280;15036;48.094;-1.690;2023-09-08T11:01:04;100962.53;;;36.26;38.77
27613;BME280;15036;48.094;-1.690;2023-09-08T11:06:08;100956.94;;;36.61;38.54
27613;BME280;15036;48.094;-1.690;2023-09-08T11:08:36;100957.47;;;36.82;37.96
27613;BME280;15036;48.094;-1.690;2023-09-08T11:11:02;100963.53;;;36.34;37.51
27613;BME280;15036;48.094;-1.690;2023-09-08T11:13:28;100962.00;;;36.52;37.13
27613;BME280;15036;48.094;-1.690;2023-09-08T11:15:54;100953.16;;;36.57;37.02
27613;BME280;15036;48.094;-1.690;2023-09-08T11:18:29;100974.47;;;36.63;36.82
27613;BME280;15036;48.094;-1.690;2023-09-08T11:20:56;100970.41;;;36.80;36.40
27613;BME280;15036;48.094;-1.690;2023-09-08T11:23:22;100976.94;;;36.80;36.23
27613;BME280;15036;48.094;-1.690;2023-09-08T11:25:52;100976.75;;;36.89;36.09
27613;BME280;15036;48.094;-1.690;2023-09-08T11:28:19;100978.28;;;37.02;35.69
27613;BME280;15036;48.094;-1.690;2023-09-08T11:30:47;100969.28;;;37.00;35.64
27613;BME280;15036;48.094;-1.690;2023-09-08T11:33:16;100963.09;;;37.13;35.30
27613;BME280;15036;48.094;-1.690;2023-09-08T11:35:42;100960.69;;;37.15;34.37
27613;BME280;15036;48.094;-1.690;2023-09-08T11:38:10;100967.28;;;37.19;34.32
27613;BME280;15036;48.094;-1.690;2023-09-08T11:40:36;100961.78;;;37.46;33.92
27613;BME280;15036;48.094;-1.690;2023-09-08T11:43:02;100972.22;;;37.57;33.66
27613;BME280;15036;48.094;-1.690;2023-09-08T11:45:30;100969.03;;;37.62;33.55
27613;BME280;15036;48.094;-1.690;2023-09-08T11:47:56;100962.59;;;37.65;33.58
27613;BME280;15036;48.094;-1.690;2023-09-08T11:50:21;100968.69;;;37.64;33.72
27613;BME280;15036;48.094;-1.690;2023-09-08T11:52:50;100964.44;;;36.38;36.54
27613;BME280;15036;48.094;-1.690;2023-09-08T11:55:17;100969.63;;;36.48;36.46
27613;BME280;15036;48.094;-1.690;2023-09-08T11:57:44;100966.59;;;37.42;35.32
27613;BME280;15036;48.094;-1.690;2023-09-08T12:00:11;100963.88;;;37.87;34.49
27613;BME280;15036;48.094;-1.690;2023-09-08T12:02:41;100961.56;;;38.38;34.05
27613;BME280;15036;48.094;-1.690;2023-09-08T12:05:11;100955.94;;;38.90;33.37
27613;BME280;15036;48.094;-1.690;2023-09-08T12:07:37;100958.72;;;39.13;33.04
27613;BME280;15036;48.094;-1.690;2023-09-08T12:10:08;100960.66;;;39.35;32.43
27613;BME280;15036;48.094;-1.690;2023-09-08T12:12:34;100957.56;;;39.47;32.37
27613;BME280;15036;48.094;-1.690;2023-09-08T12:15:06;100955.75;;;39.65;32.13
27613;BME280;15036;48.094;-1.690;2023-09-08T12:17:31;100957.19;;;39.81;31.30
27613;BME280;15036;48.094;-1.690;2023-09-08T12:19:57;100955.66;;;39.91;30.79
27613;BME280;15036;48.094;-1.690;2023-09-08T12:22:22;100947.06;;;39.91;30.96
27613;BME280;15036;48.094;-1.690;2023-09-08T12:27:19;100946.00;;;40.43;30.59
27613;BME280;15036;48.094;-1.690;2023-09-08T12:29:58;100946.06;;;40.57;30.12
27613;BME280;15036;48.094;-1.690;2023-09-08T12:32:24;100948.03;;;40.02;30.24
27613;BME280;15036;48.094;-1.690;2023-09-08T12:34:54;100940.72;;;40.48;29.75
27613;BME280;15036;48.094;-1.690;2023-09-08T12:37:23;100930.94;;;40.53;29.72
27613;BME280;15036;48.094;-1.690;2023-09-08T12:39:49;100929.75;;;40.61;29.46
27613;BME280;15036;48.094;-1.690;2023-09-08T12:42:14;100922.09;;;40.76;29.53
27613;BME280;15036;48.094;-1.690;2023-09-08T12:44:40;100931.94;;;40.31;29.57
27613;BME280;15036;48.094;-1.690;2023-09-08T12:47:06;100920.78;;;40.66;29.56